Advance, IN (46102)

12:32 AM EST on November 24, 2014 (GMT -0500)
Lebanon/Gadsden | Change Station
CLOSE
Current Station
Personal Weather Station
Location: Lebanon, IN
Elevation: 951 ft
Nearby Weather Stations
Active Advisory: Wind Advisory

Elev 951 ft 40.04 °N, 86.37 °W | Updated 6 seconds ago

Rain
Rain
54.1 °F
Feels Like 54.1 °F
N
10.1
Wind Variable Wind from SW
Gusts 16.1 mph

Today
High -- | Low -- °F
--% Chance of Precip.
Yesterday
High -- | Low -- °F
Precip. -- in
7:41 AM 5:24 PM
Waxing Crescent, 4% visible
Pressure 29.17 in
Visibility 5.0 miles
Clouds Mostly Cloudy 700 ft
Mostly Cloudy 1300 ft
Overcast 2100 ft
Dew Point 53 °F
Humidity 97%
Rainfall 0.07 in
Snow Depth Not available.
UV 0 out of 12
Pollen .10 out of 12
Air Quality Not available.
Flu Activity Not available.
METAR KTYQ 240515Z AUTO 22017G21KT 5SM RA BKN007 BKN013 OVC021 13/11 A2917 RMK AO2 P0004 T01310112

More Conditions Fewer Conditions

Pressure 29.17 in
Visibility 5.0 miles
Clouds Mostly Cloudy 700 ft
Mostly Cloudy 1300 ft
Overcast 2100 ft
Dew Point 53 °F
Humidity 97%
Rainfall 0.07 in
Snow Depth Not available.
UV 0 out of 12
Pollen .10 out of 12
Air Quality Not available.
Flu Activity Not available.
METAR KTYQ 240515Z AUTO 22017G21KT 5SM RA BKN007 BKN013 OVC021 13/11 A2917 RMK AO2 P0004 T01310112

More Conditions Fewer Conditions

10-Day Weather Forecast

Almanac

Astronomy

Nov. 24, 2014 Rise Set
Actual Time
Civil Twilight
Nautical Twilight
Astronomical Twilight
Moon
Length of Visible Light
Length of Day
Tomorrow will be .
, % of the Moon is Illuminated

Today's Extremes

State Highs State Lows

Community

WunderPhotos

Upload Photos

1,773,279 photos uploaded!

WunderBlogs® & News

Nearby

Air Quality

  Air Quality AQ Index Pollutant
Not available.

Snow Depth

Station Depth Elevation

Earthquake Activity

City Distance Mag. Time & Date
Minimum magnitude displayed is 2.5.

Coastal Water Temperatures

Place Temperature

Nearby Weather Stations